Time;durP1;ratioP1;P1;durP2;ratioP2;P2;SDS_P1;SDS_P2;PMS_P1;PMS_P2;Temp;Humidity;BMP_temperature;BMP_pressure;BME280_temperature;BME280_humidity;BME280_pressure;Samples;Min_cycle;Max_cycle;Signal;HPM_P1;HPM_P2
2022/09/25 00:01:44;;;;;;;;;;;;;;;;;;6184821;23;19912;-82
2022/09/25 00:04:10;;;;;;;;;;;;;;;;;;6184045;23;19995;-82
2022/09/25 00:06:36;;;;;;;;;;;;;;;;;;6188173;23;19913;-83
2022/09/25 00:09:02;;;;;;;;;;;;;;;;;;6191331;23;19951;-82
2022/09/25 00:11:28;;;;;;;;;;;;;;;;;;6192508;23;19974;-82
2022/09/25 00:13:53;;;;;;;;;;;;;;;;;;6192591;23;19917;-82
2022/09/25 00:16:19;;;;;;;;;;;;;;;;;;6183337;23;19912;-80
2022/09/25 00:21:30;;;;;;;;;;;;;;;;;;6185110;23;19947;-82
2022/09/25 00:23:55;;;;;;;;;;;;;;;;;;6188727;23;20304;-81
2022/09/25 00:26:21;;;;;;;;;;;;;;;;;;6193787;23;19916;-83
2022/09/25 00:28:47;;;;;;;;;;;;;;;;;;6201883;23;19913;-82
2022/09/25 00:31:13;;;;;;;;;;;;;;;;;;6195806;23;19908;-83
2022/09/25 00:33:39;;;;;;;;;;;;;;;;;;6192490;23;20353;-83
2022/09/25 00:36:05;;;;;;;;;;;;;;;;;;6187237;23;19927;-81
2022/09/25 00:38:31;;;;;;;;;;;;;;;;;;6201555;23;19912;-84
2022/09/25 00:40:57;;;;;;;;;;;;;;;;;;6212979;23;19912;-86
2022/09/25 00:43:22;;;;;;;;;;;;;;;;;;6212219;23;19916;-87
2022/09/25 00:45:48;;;;;;;;;;;;;;;;;;6209265;23;19916;-85
2022/09/25 00:48:13;;;;;;;;;;;;;;;;;;6185987;23;20008;-85
2022/09/25 00:50:39;;;;;;;;;;;;;;;;;;6212508;23;19931;-86
2022/09/25 00:53:05;;;;;;;;;;;;;;;;;;6213130;23;19928;-86
2022/09/25 00:57:57;;;;;;;;;;;;;;;;;;6273790;22;19907;-87
2022/09/25 01:00:22;;;;;;;;;;;;;;;;;;6255483;22;19908;-86
2022/09/25 01:02:49;;;;;;;;;;;;;;;;;;6272711;22;19900;-88
2022/09/25 01:05:15;;;;;;;;;;;;;;;;;;6271098;22;19920;-84
2022/09/25 01:07:40;;;;;;;;;;;;;;;;;;6268857;23;19947;-85
2022/09/25 01:10:06;;;;;;;;;;;;;;;;;;6264631;23;19926;-83
2022/09/25 01:12:32;;;;;;;;;;;;;;;;;;6259942;23;19911;-84
2022/09/25 01:14:58;;;;;;;;;;;;;;;;;;6264410;23;19918;-84
2022/09/25 01:17:23;;;;;;;;;;;;;;;;;;6263060;23;20349;-82
2022/09/25 01:19:49;;;;;;;;;;;;;;;;;;6213969;23;19935;-77
2022/09/25 01:22:14;;;;;;;;;;;;;;;;;;6214573;23;19943;-79
2022/09/25 01:24:41;;;;;;;;;;;;;;;;;;6234047;23;19911;-79
2022/09/25 01:27:06;;;;;;;;;;;;;;;;;;6244071;23;19954;-79
2022/09/25 01:29:32;;;;;;;;;;;;;;;;;;6240870;22;19924;-79
2022/09/25 01:32:01;;;;;;;;;;;;;;;;;;6244423;23;19921;-81
2022/09/25 01:34:27;;;;;;;;;;;;;;;;;;6248151;23;20310;-81
2022/09/25 01:36:53;;;;;;;;;;;;;;;;;;6246482;23;19911;-81
2022/09/25 01:39:19;;;;;;;;;;;;;;;;;;6248110;23;19911;-81
2022/09/25 01:41:45;;;;;;;;;;;;;;;;;;6253935;23;19922;-79
2022/09/25 01:44:12;;;;;;;;;;;;;;;;;;6256317;23;19951;-78
2022/09/25 01:46:37;;;;;;;;;;;;;;;;;;6250698;23;19919;-77
2022/09/25 01:49:03;;;;;;;;;;;;;;;;;;6244589;23;19920;-79
2022/09/25 01:51:28;;;;;;;;;;;;;;;;;;6241312;23;20006;-78
2022/09/25 01:53:54;;;;;;;;;;;;;;;;;;6240730;23;20263;-79
2022/09/25 01:56:19;;;;;;;;;;;;;;;;;;6240792;23;19911;-77
2022/09/25 01:58:45;;;;;;;;;;;;;;;;;;6240315;23;19918;-80
2022/09/25 02:01:11;;;;;;;;;;;;;;;;;;6241853;23;19919;-78
2022/09/25 02:03:37;;;;;;;;;;;;;;;;;;6241686;23;20220;-81
2022/09/25 02:06:03;;;;;;;;;;;;;;;;;;6242301;23;19911;-81
2022/09/25 02:08:29;;;;;;;;;;;;;;;;;;6242443;23;19912;-81
2022/09/25 02:10:55;;;;;;;;;;;;;;;;;;6242034;23;19974;-83
2022/09/25 02:13:20;;;;;;;;;;;;;;;;;;6245219;23;19922;-82
2022/09/25 02:15:46;;;;;;;;;;;;;;;;;;6246378;23;19943;-82
2022/09/25 02:20:57;;;;;;;;;;;;;;;;;;6246368;23;19991;-82
2022/09/25 02:23:22;;;;;;;;;;;;;;;;;;6246135;23;20422;-82
2022/09/25 02:25:48;;;;;;;;;;;;;;;;;;6243495;23;19912;-82
2022/09/25 02:28:14;;;;;;;;;;;;;;;;;;6241284;23;19912;-81
2022/09/25 02:30:39;;;;;;;;;;;;;;;;;;6242915;22;19946;-82
2022/09/25 02:33:05;;;;;;;;;;;;;;;;;;6244085;23;19911;-81
2022/09/25 02:35:30;;;;;;;;;;;;;;;;;;6241936;23;19918;-80
2022/09/25 02:37:56;;;;;;;;;;;;;;;;;;6215421;23;19911;-83
2022/09/25 02:40:22;;;;;;;;;;;;;;;;;;6215316;23;20323;-81
2022/09/25 02:42:47;;;;;;;;;;;;;;;;;;6241360;23;19918;-79
2022/09/25 02:45:13;;;;;;;;;;;;;;;;;;6241614;23;19919;-79
2022/09/25 02:47:38;;;;;;;;;;;;;;;;;;6241485;23;19990;-78
2022/09/25 02:50:04;;;;;;;;;;;;;;;;;;6241307;23;19962;-79
2022/09/25 02:52:30;;;;;;;;;;;;;;;;;;6214671;23;20371;-76
2022/09/25 02:54:55;;;;;;;;;;;;;;;;;;6241017;23;20307;-79
2022/09/25 02:57:21;;;;;;;;;;;;;;;;;;6241648;23;19918;-77
2022/09/25 02:59:46;;;;;;;;;;;;;;;;;;6240916;23;20090;-78
2022/09/25 03:02:12;;;;;;;;;;;;;;;;;;6241649;23;19965;-79
2022/09/25 03:04:38;;;;;;;;;;;;;;;;;;6241169;23;19964;-79
2022/09/25 03:07:03;;;;;;;;;;;;;;;;;;6241659;23;20282;-80
2022/09/25 03:09:29;;;;;;;;;;;;;;;;;;6241239;23;19920;-79
2022/09/25 03:11:56;;;;;;;;;;;;;;;;;;6241096;23;19922;-79
2022/09/25 03:14:22;;;;;;;;;;;;;;;;;;6241637;23;19915;-79
2022/09/25 03:16:47;;;;;;;;;;;;;;;;;;6215808;23;19918;-78
2022/09/25 03:19:13;;;;;;;;;;;;;;;;;;6246151;23;19911;-78
2022/09/25 03:21:38;;;;;;;;;;;;;;;;;;6252136;23;19985;-78
2022/09/25 03:24:04;;;;;;;;;;;;;;;;;;6243108;23;19915;-81
2022/09/25 03:26:30;;;;;;;;;;;;;;;;;;6242746;23;19922;-78
2022/09/25 03:28:55;;;;;;;;;;;;;;;;;;6239843;23;19911;-79
2022/09/25 03:31:21;;;;;;;;;;;;;;;;;;6241329;22;20388;-80
2022/09/25 03:33:47;;;;;;;;;;;;;;;;;;6241006;23;19911;-81
2022/09/25 03:36:12;;;;;;;;;;;;;;;;;;6241505;23;19919;-78
2022/09/25 03:38:38;;;;;;;;;;;;;;;;;;6241568;23;19965;-79
2022/09/25 03:41:05;;;;;;;;;;;;;;;;;;6241334;23;20391;-78
2022/09/25 03:43:32;;;;;;;;;;;;;;;;;;6214240;23;19911;-78
2022/09/25 03:45:58;;;;;;;;;;;;;;;;;;6241244;23;19943;-80
2022/09/25 03:48:23;;;;;;;;;;;;;;;;;;6240953;23;19973;-80
2022/09/25 03:50:49;;;;;;;;;;;;;;;;;;6240840;23;19919;-75
2022/09/25 03:53:14;;;;;;;;;;;;;;;;;;6241005;23;19916;-78
2022/09/25 03:55:40;;;;;;;;;;;;;;;;;;6240972;23;19912;-77
2022/09/25 03:58:06;;;;;;;;;;;;;;;;;;6239727;23;19919;-75
2022/09/25 04:00:31;;;;;;;;;;;;;;;;;;6241539;23;20297;-77
2022/09/25 04:02:58;;;;;;;;;;;;;;;;;;6241639;23;19918;-80
2022/09/25 04:05:23;;;;;;;;;;;;;;;;;;6241430;23;19990;-78
2022/09/25 04:07:49;;;;;;;;;;;;;;;;;;6240880;23;19935;-78
2022/09/25 04:10:14;;;;;;;;;;;;;;;;;;6213535;23;19923;-77
2022/09/25 04:12:42;;;;;;;;;;;;;;;;;;6241049;23;19990;-76
2022/09/25 04:15:08;;;;;;;;;;;;;;;;;;6240168;23;19911;-78
2022/09/25 04:17:34;;;;;;;;;;;;;;;;;;6240623;23;19918;-79
2022/09/25 04:20:00;;;;;;;;;;;;;;;;;;6240527;23;20370;-78
2022/09/25 04:22:25;;;;;;;;;;;;;;;;;;6241014;23;19911;-78
2022/09/25 04:24:51;;;;;;;;;;;;;;;;;;6240256;23;19966;-78
2022/09/25 04:27:18;;;;;;;;;;;;;;;;;;6240633;23;19911;-77
2022/09/25 04:29:43;;;;;;;;;;;;;;;;;;6239752;22;19920;-77
2022/09/25 04:34:53;;;;;;;;;;;;;;;;;;6240828;23;20151;-77
2022/09/25 04:37:22;;;;;;;;;;;;;;;;;;6241305;23;20513;-78
2022/09/25 04:39:47;;;;;;;;;;;;;;;;;;6240464;23;19916;-78
2022/09/25 04:42:13;;;;;;;;;;;;;;;;;;6240880;23;19923;-78
2022/09/25 04:44:39;;;;;;;;;;;;;;;;;;6241355;23;19934;-78
2022/09/25 04:47:04;;;;;;;;;;;;;;;;;;6240791;23;19916;-81
2022/09/25 04:49:30;;;;;;;;;;;;;;;;;;6242632;23;19919;-80
2022/09/25 04:51:55;;;;;;;;;;;;;;;;;;6242688;23;20246;-78
2022/09/25 04:54:21;;;;;;;;;;;;;;;;;;6243334;23;19947;-80
2022/09/25 04:56:47;;;;;;;;;;;;;;;;;;6242867;23;19918;-80
2022/09/25 04:59:16;;;;;;;;;;;;;;;;;;6243171;23;19916;-80
2022/09/25 05:01:42;;;;;;;;;;;;;;;;;;6242140;23;20348;-79
2022/09/25 05:04:07;;;;;;;;;;;;;;;;;;6242577;23;19912;-79
2022/09/25 05:06:33;;;;;;;;;;;;;;;;;;6242476;23;19912;-78
2022/09/25 05:08:59;;;;;;;;;;;;;;;;;;6242315;23;19911;-78
2022/09/25 05:11:24;;;;;;;;;;;;;;;;;;6243218;23;19916;-78
2022/09/25 05:13:50;;;;;;;;;;;;;;;;;;6243159;23;20264;-78
2022/09/25 05:16:15;;;;;;;;;;;;;;;;;;6255781;23;19959;-77
2022/09/25 05:18:41;;;;;;;;;;;;;;;;;;6243554;23;20348;-78
2022/09/25 05:21:07;;;;;;;;;;;;;;;;;;6242661;23;19911;-78
2022/09/25 05:23:32;;;;;;;;;;;;;;;;;;6240654;23;19911;-77
2022/09/25 05:26:01;;;;;;;;;;;;;;;;;;6242986;23;19974;-77
2022/09/25 05:28:27;;;;;;;;;;;;;;;;;;6240994;23;19911;-78
2022/09/25 05:30:53;;;;;;;;;;;;;;;;;;6240200;22;20334;-78
2022/09/25 05:33:19;;;;;;;;;;;;;;;;;;6241782;23;19934;-78
2022/09/25 05:35:44;;;;;;;;;;;;;;;;;;6242196;23;20344;-79
2022/09/25 05:38:11;;;;;;;;;;;;;;;;;;6236052;23;19919;-73
2022/09/25 05:40:39;;;;;;;;;;;;;;;;;;6240381;23;19931;-74
2022/09/25 05:43:05;;;;;;;;;;;;;;;;;;6213661;23;19947;-75
2022/09/25 05:45:30;;;;;;;;;;;;;;;;;;6240689;23;19918;-75
2022/09/25 05:47:56;;;;;;;;;;;;;;;;;;6213812;23;19911;-74
2022/09/25 05:50:22;;;;;;;;;;;;;;;;;;6215426;23;19969;-77
2022/09/25 05:52:47;;;;;;;;;;;;;;;;;;6240022;23;19911;-81
2022/09/25 05:55:13;;;;;;;;;;;;;;;;;;6242056;23;19937;-75
2022/09/25 05:57:38;;;;;;;;;;;;;;;;;;6251997;23;20374;-75
2022/09/25 06:00:04;;;;;;;;;;;;;;;;;;6252604;23;20256;-75
2022/09/25 06:02:37;;;;;;;;;;;;;;;;;;6245243;23;19966;-79
2022/09/25 06:05:02;;;;;;;;;;;;;;;;;;6240498;23;19970;-73
2022/09/25 06:07:29;;;;;;;;;;;;;;;;;;6240973;23;20426;-79
2022/09/25 06:09:55;;;;;;;;;;;;;;;;;;6188777;23;19932;-78
2022/09/25 06:12:22;;;;;;;;;;;;;;;;;;6240887;23;19916;-78
2022/09/25 06:14:47;;;;;;;;;;;;;;;;;;6239971;23;19990;-75
2022/09/25 06:17:13;;;;;;;;;;;;;;;;;;6240471;23;19953;-77
2022/09/25 06:19:38;;;;;;;;;;;;;;;;;;6240367;23;19911;-74
2022/09/25 06:22:04;;;;;;;;;;;;;;;;;;6240248;23;19957;-74
2022/09/25 06:24:29;;;;;;;;;;;;;;;;;;6240163;23;19964;-73
2022/09/25 06:26:55;;;;;;;;;;;;;;;;;;6239824;23;19915;-73
2022/09/25 06:29:20;;;;;;;;;;;;;;;;;;6239977;22;19923;-73
2022/09/25 06:31:46;;;;;;;;;;;;;;;;;;6240013;23;19917;-77
2022/09/25 06:34:12;;;;;;;;;;;;;;;;;;6240845;23;19911;-72
2022/09/25 06:36:37;;;;;;;;;;;;;;;;;;6238488;23;20010;-73
2022/09/25 06:39:03;;;;;;;;;;;;;;;;;;6239573;23;19935;-77
2022/09/25 06:41:28;;;;;;;;;;;;;;;;;;6211628;23;19911;-80
2022/09/25 06:43:54;;;;;;;;;;;;;;;;;;6214848;23;19970;-75
2022/09/25 06:46:19;;;;;;;;;;;;;;;;;;6239900;23;20357;-75
2022/09/25 06:48:45;;;;;;;;;;;;;;;;;;6212578;23;20013;-75
2022/09/25 06:51:11;;;;;;;;;;;;;;;;;;6239884;23;20344;-75
2022/09/25 06:53:36;;;;;;;;;;;;;;;;;;6213281;23;19994;-73
2022/09/25 06:56:02;;;;;;;;;;;;;;;;;;6238448;23;20272;-74
2022/09/25 06:58:29;;;;;;;;;;;;;;;;;;6239884;23;20029;-78
2022/09/25 07:00:55;;;;;;;;;;;;;;;;;;6212832;23;19924;-74
2022/09/25 07:06:04;;;;;;;;;;;;;;;;;;6239563;23;20361;-73
2022/09/25 07:08:30;;;;;;;;;;;;;;;;;;6213338;23;19916;-73
2022/09/25 07:10:56;;;;;;;;;;;;;;;;;;6239567;23;19915;-73
2022/09/25 07:13:24;;;;;;;;;;;;;;;;;;6240727;23;19911;-73
2022/09/25 07:15:50;;;;;;;;;;;;;;;;;;6238824;23;19912;-73
2022/09/25 07:18:15;;;;;;;;;;;;;;;;;;6239773;23;19908;-73
2022/09/25 07:20:41;;;;;;;;;;;;;;;;;;6239467;23;19911;-72
2022/09/25 07:23:07;;;;;;;;;;;;;;;;;;6238783;23;19912;-73
2022/09/25 07:25:32;;;;;;;;;;;;;;;;;;6239136;23;19970;-73
2022/09/25 07:27:58;;;;;;;;;;;;;;;;;;6239392;23;20320;-73
2022/09/25 07:30:23;;;;;;;;;;;;;;;;;;6209604;23;19926;-73
2022/09/25 07:32:49;;;;;;;;;;;;;;;;;;6238547;23;19911;-73
2022/09/25 07:35:15;;;;;;;;;;;;;;;;;;6239393;23;19915;-73
2022/09/25 07:37:40;;;;;;;;;;;;;;;;;;6239260;23;19927;-73
2022/09/25 07:40:06;;;;;;;;;;;;;;;;;;6238348;23;19912;-73
2022/09/25 07:42:31;;;;;;;;;;;;;;;;;;6241151;23;19919;-73
2022/09/25 07:44:57;;;;;;;;;;;;;;;;;;6237737;23;19958;-73
2022/09/25 07:47:26;;;;;;;;;;;;;;;;;;6239458;23;19940;-73
2022/09/25 07:49:52;;;;;;;;;;;;;;;;;;6239305;23;19920;-72
2022/09/25 07:52:17;;;;;;;;;;;;;;;;;;6239380;23;20256;-73
2022/09/25 07:54:42;;;;;;;;;;;;;;;;;;6238820;23;19916;-75
2022/09/25 07:57:08;;;;;;;;;;;;;;;;;;6239801;23;19917;-73
2022/09/25 07:59:34;;;;;;;;;;;;;;;;;;6213699;23;19979;-72
2022/09/25 08:02:00;;;;;;;;;;;;;;;;;;6212747;23;19981;-73
2022/09/25 08:04:25;;;;;;;;;;;;;;;;;;6226223;23;19916;-74
2022/09/25 08:06:51;;;;;;;;;;;;;;;;;;6240166;23;19919;-73
2022/09/25 08:09:16;;;;;;;;;;;;;;;;;;6239011;23;19920;-73
2022/09/25 08:11:42;;;;;;;;;;;;;;;;;;6238877;23;19911;-73
2022/09/25 08:14:08;;;;;;;;;;;;;;;;;;6238587;23;19998;-73
2022/09/25 08:16:33;;;;;;;;;;;;;;;;;;6239248;23;19912;-73
2022/09/25 08:18:59;;;;;;;;;;;;;;;;;;6238785;23;19918;-74
2022/09/25 08:21:24;;;;;;;;;;;;;;;;;;6212352;23;20352;-73
2022/09/25 08:23:50;;;;;;;;;;;;;;;;;;6239722;23;20332;-73
2022/09/25 08:26:16;;;;;;;;;;;;;;;;;;6238624;23;19934;-72
2022/09/25 08:28:41;;;;;;;;;;;;;;;;;;6240719;23;19911;-73
2022/09/25 08:31:07;;;;;;;;;;;;;;;;;;6240092;22;19920;-73
2022/09/25 08:33:36;;;;;;;;;;;;;;;;;;6240667;23;19939;-73
2022/09/25 08:36:01;;;;;;;;;;;;;;;;;;6240586;23;19942;-72
2022/09/25 08:38:27;;;;;;;;;;;;;;;;;;6241049;23;19911;-72
2022/09/25 08:40:52;;;;;;;;;;;;;;;;;;6240693;23;19918;-74
2022/09/25 08:43:18;;;;;;;;;;;;;;;;;;6241185;23;20339;-72
2022/09/25 08:51:12;;;;;;;;;;;;;;;;;;6240667;23;19999;-73
2022/09/25 08:53:38;;;;;;;;;;;;;;;;;;6214342;23;20320;-72
2022/09/25 08:56:19;;;;;;;;;;;;;;;;;;6240513;23;19911;-73
2022/09/25 08:58:44;;;;;;;;;;;;;;;;;;6240392;23;19980;-74
2022/09/25 09:01:12;;;;;;;;;;;;;;;;;;6238681;23;19991;-74
2022/09/25 09:03:37;;;;;;;;;;;;;;;;;;6239162;23;19919;-73
2022/09/25 09:06:03;;;;;;;;;;;;;;;;;;6240413;23;19907;-74
2022/09/25 09:08:28;;;;;;;;;;;;;;;;;;6241898;23;19935;-74
2022/09/25 09:10:54;;;;;;;;;;;;;;;;;;6239786;23;19919;-73
2022/09/25 09:13:20;;;;;;;;;;;;;;;;;;6238749;23;19918;-73
2022/09/25 09:15:45;;;;;;;;;;;;;;;;;;6211731;23;19911;-73
2022/09/25 09:18:11;;;;;;;;;;;;;;;;;;6239685;23;20374;-73
2022/09/25 09:20:37;;;;;;;;;;;;;;;;;;6209617;23;20148;-72
2022/09/25 09:23:02;;;;;;;;;;;;;;;;;;6233196;23;20021;-72
2022/09/25 09:25:28;;;;;;;;;;;;;;;;;;6212835;23;19915;-73
2022/09/25 09:27:53;;;;;;;;;;;;;;;;;;6239746;23;19911;-73
2022/09/25 09:30:19;;;;;;;;;;;;;;;;;;6238658;22;19919;-73
2022/09/25 09:32:44;;;;;;;;;;;;;;;;;;6239810;23;20362;-72
2022/09/25 09:35:10;;;;;;;;;;;;;;;;;;6238737;23;19969;-72
2022/09/25 09:37:36;;;;;;;;;;;;;;;;;;6240036;23;20353;-74
2022/09/25 09:40:01;;;;;;;;;;;;;;;;;;6210731;23;19957;-74
2022/09/25 09:42:31;;;;;;;;;;;;;;;;;;6239355;23;19912;-73
2022/09/25 09:44:57;;;;;;;;;;;;;;;;;;6238769;23;19912;-73
2022/09/25 09:47:24;;;;;;;;;;;;;;;;;;6239206;23;20359;-73
2022/09/25 09:49:49;;;;;;;;;;;;;;;;;;6199708;22;19965;-74
2022/09/25 09:52:16;;;;;;;;;;;;;;;;;;6227941;23;19915;-73
2022/09/25 09:54:42;;;;;;;;;;;;;;;;;;6239795;23;19943;-74
2022/09/25 09:57:07;;;;;;;;;;;;;;;;;;6216922;22;19919;-74
2022/09/25 09:59:33;;;;;;;;;;;;;;;;;;6239795;23;19954;-73
2022/09/25 10:01:58;;;;;;;;;;;;;;;;;;6240510;23;19919;-73
2022/09/25 10:04:25;;;;;;;;;;;;;;;;;;6238878;23;19934;-72
2022/09/25 10:06:50;;;;;;;;;;;;;;;;;;6240316;23;19915;-73
2022/09/25 10:09:16;;;;;;;;;;;;;;;;;;6240103;23;19928;-73
2022/09/25 10:11:42;;;;;;;;;;;;;;;;;;6215873;22;19911;-73
2022/09/25 10:14:07;;;;;;;;;;;;;;;;;;6238696;23;19966;-72
2022/09/25 10:16:33;;;;;;;;;;;;;;;;;;6240083;23;19919;-72
2022/09/25 10:19:03;;;;;;;;;;;;;;;;;;6238079;23;20296;-73
2022/09/25 10:21:28;;;;;;;;;;;;;;;;;;6239687;23;20196;-74
2022/09/25 10:23:54;;;;;;;;;;;;;;;;;;6225649;22;20466;-73
2022/09/25 10:26:20;;;;;;;;;;;;;;;;;;6228376;23;19912;-72
2022/09/25 10:28:45;;;;;;;;;;;;;;;;;;6239505;23;19911;-73
2022/09/25 10:31:11;;;;;;;;;;;;;;;;;;6239069;22;20006;-72
2022/09/25 10:33:37;;;;;;;;;;;;;;;;;;6239116;23;20318;-72
2022/09/25 10:36:02;;;;;;;;;;;;;;;;;;6211222;23;20002;-74
2022/09/25 10:38:28;;;;;;;;;;;;;;;;;;6221989;22;19912;-73
2022/09/25 10:40:55;;;;;;;;;;;;;;;;;;6230150;23;19912;-73
2022/09/25 10:43:22;;;;;;;;;;;;;;;;;;6238089;23;20348;-73
2022/09/25 10:45:51;;;;;;;;;;;;;;;;;;6239149;23;20256;-73
2022/09/25 10:51:01;;;;;;;;;;;;;;;;;;6236519;23;20402;-73
2022/09/25 10:53:30;;;;;;;;;;;;;;;;;;6214569;22;19990;-73
2022/09/25 10:55:55;;;;;;;;;;;;;;;;;;6237791;23;20002;-73
2022/09/25 10:58:23;;;;;;;;;;;;;;;;;;6191750;23;19973;-73
2022/09/25 11:00:50;;;;;;;;;;;;;;;;;;6236539;23;19935;-72
2022/09/25 11:03:19;;;;;;;;;;;;;;;;;;6238944;23;19946;-72
2022/09/25 11:05:44;;;;;;;;;;;;;;;;;;6216683;23;19919;-72
2022/09/25 11:08:10;;;;;;;;;;;;;;;;;;6237985;23;20299;-72
2022/09/25 11:10:35;;;;;;;;;;;;;;;;;;6237157;23;20658;-73
2022/09/25 11:13:01;;;;;;;;;;;;;;;;;;6238532;23;19999;-73
2022/09/25 11:15:27;;;;;;;;;;;;;;;;;;6238350;23;20397;-73
2022/09/25 11:17:53;;;;;;;;;;;;;;;;;;6229803;22;19911;-75
2022/09/25 11:20:19;;;;;;;;;;;;;;;;;;6222039;23;19919;-72
2022/09/25 11:22:44;;;;;;;;;;;;;;;;;;6236043;23;19946;-74
2022/09/25 11:25:10;;;;;;;;;;;;;;;;;;6239242;23;19918;-75
2022/09/25 11:27:36;;;;;;;;;;;;;;;;;;6237545;23;19911;-74
2022/09/25 11:30:02;;;;;;;;;;;;;;;;;;6237565;22;19923;-74
2022/09/25 11:32:29;;;;;;;;;;;;;;;;;;6221730;23;19911;-74
2022/09/25 11:34:54;;;;;;;;;;;;;;;;;;6231100;23;19921;-74
2022/09/25 11:37:20;;;;;;;;;;;;;;;;;;6236949;23;19919;-74
2022/09/25 11:42:30;;;;;;;;;;;;;;;;;;6237899;23;19911;-84
2022/09/25 11:44:56;;;;;;;;;;;;;;;;;;6239109;23;19911;-78
2022/09/25 11:47:23;;;;;;;;;;;;;;;;;;6214624;22;19911;-78
2022/09/25 11:49:50;;;;;;;;;;;;;;;;;;6238828;23;20378;-77
2022/09/25 11:52:17;;;;;;;;;;;;;;;;;;6217481;22;19979;-78
2022/09/25 11:54:42;;;;;;;;;;;;;;;;;;6201807;23;19934;-81
2022/09/25 11:57:08;;;;;;;;;;;;;;;;;;6230765;23;19911;-78
2022/09/25 11:59:37;;;;;;;;;;;;;;;;;;6218486;23;19997;-79
2022/09/25 12:02:02;;;;;;;;;;;;;;;;;;6238234;23;19955;-76
2022/09/25 12:04:28;;;;;;;;;;;;;;;;;;6239953;23;19911;-76
2022/09/25 12:06:54;;;;;;;;;;;;;;;;;;6240908;23;19918;-77
2022/09/25 12:09:19;;;;;;;;;;;;;;;;;;6238287;23;19912;-78
2022/09/25 12:11:45;;;;;;;;;;;;;;;;;;6240466;23;19986;-77
2022/09/25 12:14:10;;;;;;;;;;;;;;;;;;6239431;23;19993;-80
2022/09/25 12:16:36;;;;;;;;;;;;;;;;;;6240399;23;19952;-76
2022/09/25 12:19:02;;;;;;;;;;;;;;;;;;6237460;23;19989;-77
2022/09/25 12:21:31;;;;;;;;;;;;;;;;;;6209896;23;19912;-76
2022/09/25 12:23:57;;;;;;;;;;;;;;;;;;6237897;23;19967;-76
2022/09/25 12:26:23;;;;;;;;;;;;;;;;;;6237676;23;19912;-76
2022/09/25 12:28:51;;;;;;;;;;;;;;;;;;6240462;23;20268;-76
2022/09/25 12:31:16;;;;;;;;;;;;;;;;;;6214914;22;19927;-75
2022/09/25 12:33:42;;;;;;;;;;;;;;;;;;6238680;23;19912;-75
2022/09/25 12:36:07;;;;;;;;;;;;;;;;;;6236784;23;19912;-76
2022/09/25 12:38:33;;;;;;;;;;;;;;;;;;6209845;23;19942;-76
2022/09/25 12:40:59;;;;;;;;;;;;;;;;;;6236156;23;20014;-76
2022/09/25 12:43:25;;;;;;;;;;;;;;;;;;6236118;23;19923;-76
2022/09/25 12:45:50;;;;;;;;;;;;;;;;;;6213219;23;20128;-76
2022/09/25 12:48:16;;;;;;;;;;;;;;;;;;6237896;23;19966;-76
2022/09/25 12:50:42;;;;;;;;;;;;;;;;;;6235632;23;19920;-77
2022/09/25 12:53:07;;;;;;;;;;;;;;;;;;6240134;23;19966;-77
2022/09/25 12:55:33;;;;;;;;;;;;;;;;;;6240048;23;19918;-77
2022/09/25 12:57:59;;;;;;;;;;;;;;;;;;6230212;22;19957;-77
2022/09/25 13:00:24;;;;;;;;;;;;;;;;;;6230956;23;19923;-76
2022/09/25 13:02:50;;;;;;;;;;;;;;;;;;6242817;23;19911;-76
2022/09/25 13:05:16;;;;;;;;;;;;;;;;;;6215625;22;19918;-76
2022/09/25 13:07:41;;;;;;;;;;;;;;;;;;6239621;23;19923;-77
2022/09/25 13:10:08;;;;;;;;;;;;;;;;;;6239772;23;19934;-77
2022/09/25 13:12:34;;;;;;;;;;;;;;;;;;6241001;23;20006;-76
2022/09/25 13:14:59;;;;;;;;;;;;;;;;;;6240143;23;19954;-76
2022/09/25 13:17:25;;;;;;;;;;;;;;;;;;6240820;23;20378;-76
2022/09/25 13:19:50;;;;;;;;;;;;;;;;;;6212043;22;19911;-76
2022/09/25 13:22:17;;;;;;;;;;;;;;;;;;6239135;23;19931;-77
2022/09/25 13:24:43;;;;;;;;;;;;;;;;;;6238925;23;20239;-77
2022/09/25 13:27:08;;;;;;;;;;;;;;;;;;6239931;23;19912;-77
2022/09/25 13:29:35;;;;;;;;;;;;;;;;;;6240696;22;20245;-77
2022/09/25 13:32:00;;;;;;;;;;;;;;;;;;6227582;23;19911;-76
2022/09/25 13:34:26;;;;;;;;;;;;;;;;;;6226878;23;19922;-76
2022/09/25 13:36:52;;;;;;;;;;;;;;;;;;6240373;23;19919;-77
2022/09/25 13:42:02;;;;;;;;;;;;;;;;;;6239787;23;19915;-78
2022/09/25 13:44:29;;;;;;;;;;;;;;;;;;6238002;23;19918;-78
2022/09/25 13:46:54;;;;;;;;;;;;;;;;;;6215833;22;20464;-79
2022/09/25 13:49:20;;;;;;;;;;;;;;;;;;6240129;23;19950;-77
2022/09/25 13:51:45;;;;;;;;;;;;;;;;;;6238638;23;19919;-77
2022/09/25 13:54:11;;;;;;;;;;;;;;;;;;6191675;23;19912;-78
2022/09/25 13:56:37;;;;;;;;;;;;;;;;;;6238683;23;20352;-76
2022/09/25 13:59:03;;;;;;;;;;;;;;;;;;6217071;22;19912;-77
2022/09/25 14:01:31;;;;;;;;;;;;;;;;;;6215365;23;19970;-77
2022/09/25 14:03:57;;;;;;;;;;;;;;;;;;6243396;23;19912;-77
2022/09/25 14:06:22;;;;;;;;;;;;;;;;;;6242411;23;19912;-77
2022/09/25 14:08:48;;;;;;;;;;;;;;;;;;6248860;23;19918;-76
2022/09/25 14:11:14;;;;;;;;;;;;;;;;;;6214637;23;20275;-77
2022/09/25 14:13:44;;;;;;;;;;;;;;;;;;6213438;23;19911;-77
2022/09/25 14:16:11;;;;;;;;;;;;;;;;;;6199002;23;19922;-77
2022/09/25 14:18:36;;;;;;;;;;;;;;;;;;6231473;23;19981;-78
2022/09/25 14:21:02;;;;;;;;;;;;;;;;;;6237419;23;20360;-77
2022/09/25 14:23:32;;;;;;;;;;;;;;;;;;6215574;23;19954;-76
2022/09/25 14:25:58;;;;;;;;;;;;;;;;;;6239030;23;19912;-76
2022/09/25 14:28:24;;;;;;;;;;;;;;;;;;6222652;23;19911;-77
2022/09/25 14:30:51;;;;;;;;;;;;;;;;;;6231301;22;20275;-75
2022/09/25 14:33:17;;;;;;;;;;;;;;;;;;6237804;23;20025;-75
2022/09/25 14:35:42;;;;;;;;;;;;;;;;;;6213633;23;20311;-76
2022/09/25 14:38:08;;;;;;;;;;;;;;;;;;6238498;23;19914;-76
2022/09/25 14:40:34;;;;;;;;;;;;;;;;;;6191261;23;19911;-77
2022/09/25 14:42:59;;;;;;;;;;;;;;;;;;6235919;23;19935;-75
2022/09/25 14:45:25;;;;;;;;;;;;;;;;;;6239773;23;19923;-77
2022/09/25 14:47:51;;;;;;;;;;;;;;;;;;6214429;23;19912;-74
2022/09/25 14:50:17;;;;;;;;;;;;;;;;;;6240163;23;19955;-79
2022/09/25 14:52:42;;;;;;;;;;;;;;;;;;6217422;22;19911;-75
2022/09/25 14:55:08;;;;;;;;;;;;;;;;;;6238948;23;19912;-78
2022/09/25 14:57:33;;;;;;;;;;;;;;;;;;6245059;23;19986;-78
2022/09/25 14:59:59;;;;;;;;;;;;;;;;;;6220017;23;19915;-78
2022/09/25 15:02:25;;;;;;;;;;;;;;;;;;6239429;23;20332;-77
2022/09/25 15:04:51;;;;;;;;;;;;;;;;;;6238913;23;19922;-78
2022/09/25 15:07:16;;;;;;;;;;;;;;;;;;6212913;23;19949;-77
2022/09/25 15:09:46;;;;;;;;;;;;;;;;;;6239757;23;19919;-77
2022/09/25 15:12:12;;;;;;;;;;;;;;;;;;6223844;23;20402;-77
2022/09/25 15:14:37;;;;;;;;;;;;;;;;;;6219490;23;19911;-76
2022/09/25 15:17:22;;;;;;;;;;;;;;;;;;6239114;23;19911;-77
2022/09/25 15:19:47;;;;;;;;;;;;;;;;;;6212196;23;19918;-73
2022/09/25 15:22:13;;;;;;;;;;;;;;;;;;6234535;23;19911;-72
2022/09/25 15:24:39;;;;;;;;;;;;;;;;;;6238700;23;19919;-73
2022/09/25 15:27:05;;;;;;;;;;;;;;;;;;6211657;23;19966;-72
2022/09/25 15:29:31;;;;;;;;;;;;;;;;;;6237386;22;20352;-73
2022/09/25 15:31:56;;;;;;;;;;;;;;;;;;6227531;23;19941;-73
2022/09/25 15:34:22;;;;;;;;;;;;;;;;;;6224740;23;19911;-73
2022/09/25 15:36:49;;;;;;;;;;;;;;;;;;6238179;23;19911;-73
2022/09/25 15:39:15;;;;;;;;;;;;;;;;;;6212601;23;19919;-74
2022/09/25 15:41:40;;;;;;;;;;;;;;;;;;6237710;23;20266;-75
2022/09/25 15:44:06;;;;;;;;;;;;;;;;;;6233625;23;19918;-73
2022/09/25 15:46:32;;;;;;;;;;;;;;;;;;6234465;23;20373;-73
2022/09/25 15:48:57;;;;;;;;;;;;;;;;;;6189964;23;19965;-72
2022/09/25 15:51:23;;;;;;;;;;;;;;;;;;6238637;23;19920;-72
2022/09/25 15:53:48;;;;;;;;;;;;;;;;;;6215475;23;19912;-73
2022/09/25 15:56:14;;;;;;;;;;;;;;;;;;6238663;23;20249;-71
2022/09/25 15:58:40;;;;;;;;;;;;;;;;;;6239335;23;19911;-73
2022/09/25 16:06:34;;;;;;;;;;;;;;;;;;6238514;23;19935;-72
2022/09/25 16:09:00;;;;;;;;;;;;;;;;;;6214896;23;19912;-71
2022/09/25 16:11:26;;;;;;;;;;;;;;;;;;6239223;23;20001;-72
2022/09/25 16:13:52;;;;;;;;;;;;;;;;;;6239285;23;19912;-73
2022/09/25 16:16:17;;;;;;;;;;;;;;;;;;6239089;23;19912;-72
2022/09/25 16:18:43;;;;;;;;;;;;;;;;;;6237805;23;19962;-72
2022/09/25 16:21:09;;;;;;;;;;;;;;;;;;6197871;23;20214;-71
2022/09/25 16:23:37;;;;;;;;;;;;;;;;;;6230142;23;19954;-72
2022/09/25 16:26:02;;;;;;;;;;;;;;;;;;6238189;23;19942;-72
2022/09/25 16:28:28;;;;;;;;;;;;;;;;;;6187316;23;19931;-73
2022/09/25 16:30:53;;;;;;;;;;;;;;;;;;6237961;22;20019;-73
2022/09/25 16:33:19;;;;;;;;;;;;;;;;;;6238727;23;19915;-73
2022/09/25 16:35:44;;;;;;;;;;;;;;;;;;6238022;23;19912;-72
2022/09/25 16:49:37;;;;;;;13.13;7.25;;;;;;;;;;5106619;27;20459;-73
2022/09/25 16:52:03;;;;;;;8.15;5.35;;;;;;;;;;5082911;28;20032;-72
2022/09/25 16:54:30;;;;;;;8.52;5.28;;;;;;;;;;5065503;28;20393;-72
2022/09/25 16:56:58;;;;;;;6.00;5.40;;;;;;;;;;5056936;28;20403;-73
2022/09/25 16:59:25;;;;;;;8.80;5.55;;;;;;;;;;5082498;28;20047;-73
2022/09/25 17:01:54;;;;;;;5.97;5.25;;;;;;;;;;5103940;28;20032;-72
2022/09/25 17:04:27;;;;;;;6.05;5.63;;;;;;;;;;5069058;28;20046;-72
2022/09/25 17:06:55;;;;;;;10.68;6.90;;;;;;;;;;5104297;28;20035;-72
2022/09/25 17:09:21;;;;;;;10.57;7.40;;;;;;;;;;5085599;28;20036;-73
2022/09/25 17:11:49;;;;;;;12.73;8.65;;;;;;;;;;5104471;28;20035;-73
2022/09/25 17:14:25;;;;;;;10.60;7.60;;;;;;;;;;5030086;28;20040;-72
2022/09/25 17:16:51;;;;;;;10.98;8.50;;;;;;;;;;5063598;28;20060;-72